Chef Menteur, Louisiana
Current Conditions -  °F | °C
As of 5:53 AM on Friday 24 Oct 2014 (Local Time) from KNEW Reporting Station
Clear Clear  
Wind Chill: 62°   Ceiling: Unl
Heat Index: 62°   Visibility: 10mi
Dew Point: 52°   Wind: 15mph
Humidity: 70%   Direction: 60°ENE
Pressure: 30.09"   Gusts: NA
Location:  29.9961°N, 90.0035°W
Report Text: KNEW 241053Z AUTO 06013KT 10SM CLR 17/11 A3009 RMK AO2 SLP183 T01670111 TSNO
Loading
Personal Weather Stations






























Interactive Weather Map
Tropical Storm Tracking
New forecast layout! Learn more

10-Day Weather Forecast

Advertisements
Track Severe Weather on mobile